Aurora, CO

12:40 AM MDT on May 26, 2017 (GMT -0600)
Denver International | | Change Station

Elev 5430 ft 39.86 °N, 104.67 °W | Updated 8 minutes ago

Light Rain
Light Rain
51 °F
Feels Like 51 °F
N
32
Wind Variable Wind from NNW
Gusts 40 mph

Today
High -- | Low -- °F
--% Chance of Precip.
Yesterday
High -- | Low -- °F
Precip. -- in
Pressure 29.96 in
Visibility 10.0 miles
Clouds Scattered Clouds 3300 ft
Scattered Clouds 4100 ft
Overcast 6000 ft
Dew Point 45 °F
Humidity 80%
Rainfall 0.00 in
Snow Depth Not available.
5:35 AM 8:16 PM
New Moon, 0% visible
SPECI KDEN 260632Z 34028G35KT 10SM VCTS -RA SCT033CB SCT041 OVC060 11/07 A2996 RMK AO2 PK WND 31037/0632 LTG DSNT W RAB23 PRESRR CONS LTGICCCCG VC W-NW TSB31 TS VC W MOV E P0000 T01060072
Pressure 29.96 in
Visibility 10.0 miles
Clouds Scattered Clouds 3300 ft
Scattered Clouds 4100 ft
Overcast 6000 ft
Dew Point 45 °F
Humidity 80%
Rainfall 0.00 in
Snow Depth Not available.
5:35 AM 8:16 PM
New Moon, 0% visible
SPECI KDEN 260632Z 34028G35KT 10SM VCTS -RA SCT033CB SCT041 OVC060 11/07 A2996 RMK AO2 PK WND 31037/0632 LTG DSNT W RAB23 PRESRR CONS LTGICCCCG VC W-NW TSB31 TS VC W MOV E P0000 T01060072

Get Severe Weather Alerts

Thanks for signing up!

Be on the lookout for a verification email in your inbox.

You'll start receiving the daily forecast at 6 AM.

×

10-Day Weather Forecast

Almanac

Astronomy

May. 26, 2017 Rise Set
Actual Time
Civil Twilight
Nautical Twilight
Astronomical Twilight
Moon
Length of Visible Light
Length of Day
Tomorrow will be .
, % of the Moon is Illuminated

Today's Extremes

State Highs State Lows

Community

WunderPhotos

Category 6

Welcome to Category 6. This is the collective home for Weather Underground's featured writeups by Dr. Jeff Masters (right), Bob Henson (left), Chris Burt, and other regular contributors.

Nearby

Air Quality

  Air Quality AQ Index Pollutant
Not available.

Snow Depth

Station Depth Elevation

Earthquake Activity

City Distance Mag. Time & Date
Minimum magnitude displayed is 2.5.

Coastal Water Temperatures

Place Temperature

Stations

Nearby Weather Stations

Station Location Temp. Windchill Dew Point Humidity Wind Precip. Elev Updated Type
                   

Watches & Warnings

There are currently no watches in effect.